Time;durP1;ratioP1;P1;durP2;ratioP2;P2;SDS_P1;SDS_P2;PMS_P1;PMS_P2;Temp;Humidity;BMP_temperature;BMP_pressure;BME280_temperature;BME280_humidity;BME280_pressure;Samples;Min_cycle;Max_cycle;Signal;HPM_P1;HPM_P2
2021/03/29 00:06:52;;;;;;;34.9;26.8;;;;;;;-0.58;83.65918;100047;;;;
2021/03/29 00:16:49;;;;;;;46.9;30.7;;;;;;;-0.67;83.9834;100053.5;;;;
2021/03/29 00:26:47;;;;;;;44.3;32.8;;;;;;;-0.75;84.59082;100056.3;;;;
2021/03/29 00:36:45;;;;;;;33.4;18.5;;;;;;;-0.7;85.00684;100061.8;;;;
2021/03/29 00:46:41;;;;;;;14.3;10;;;;;;;-0.38;85.37598;100064.8;;;;
2021/03/29 00:56:39;;;;;;;12.3;9.3;;;;;;;-0.07;84.00098;100070.3;;;;
2021/03/29 01:06:36;;;;;;;15.7;9.4;;;;;;;0.15;82.95508;100076.2;;;;
2021/03/29 01:16:34;;;;;;;14.5;10.2;;;;;;;0.25;82.12891;100072.1;;;;
2021/03/29 01:26:37;;;;;;;17.2;11.2;;;;;;;0.29;81.74023;100067.3;;;;
2021/03/29 01:36:33;;;;;;;18.7;9.9;;;;;;;0.26;81.61426;100075.6;;;;
2021/03/29 01:46:26;;;;;;;17.7;8.7;;;;;;;0.25;82.03027;100061.5;;;;
2021/03/29 01:56:23;;;;;;;15.2;10.8;;;;;;;0.18;82.31348;100071.3;;;;
2021/03/29 02:06:21;;;;;;;18.9;11.6;;;;;;;0.14;82.93066;100072;;;;
2021/03/29 02:16:18;;;;;;;18.4;12.7;;;;;;;0.1;82.81445;100055.6;;;;
2021/03/29 02:26:16;;;;;;;20.5;12.8;;;;;;;0;83.84961;100063.2;;;;
2021/03/29 02:36:13;;;;;;;20.9;14.2;;;;;;;-0.03;84.32813;100063.6;;;;
2021/03/29 02:46:11;;;;;;;22.2;16.8;;;;;;;0.03;84.91992;100052.2;;;;
2021/03/29 02:56:08;;;;;;;31.9;23.7;;;;;;;0.18;85.10449;100054.6;;;;
2021/03/29 03:06:05;;;;;;;41;27.2;;;;;;;0.35;86.30273;100063.8;;;;
2021/03/29 03:16:03;;;;;;;37.5;30.7;;;;;;;0.64;86.26172;100070.5;;;;
2021/03/29 03:26:00;;;;;;;35.6;25.5;;;;;;;0.85;85.87598;100067.6;;;;
2021/03/29 03:35:58;;;;;;;29.4;24.5;;;;;;;1.08;86;100065.3;;;;
2021/03/29 03:45:55;;;;;;;41.3;26.5;;;;;;;1.2;85.49414;100065.4;;;;
2021/03/29 03:55:53;;;;;;;42.5;28.8;;;;;;;1.26;84.80176;100069.9;;;;
2021/03/29 04:05:51;;;;;;;36.4;23.9;;;;;;;1.13;86.52539;100070.8;;;;
2021/03/29 04:15:48;;;;;;;36.1;27.1;;;;;;;1.19;86.27441;100072.6;;;;
2021/03/29 04:25:46;;;;;;;54.6;35.5;;;;;;;1.1;84.71484;100079.2;;;;
2021/03/29 04:35:45;;;;;;;53.4;36.2;;;;;;;1.12;84.01367;100094.9;;;;
2021/03/29 04:45:41;;;;;;;47.1;32.3;;;;;;;1.2;84.74609;100092;;;;
2021/03/29 04:55:41;;;;;;;46.1;36.4;;;;;;;1.34;87.8457;100097;;;;
2021/03/29 05:05:36;;;;;;;44;36.5;;;;;;;1.6;88.71387;100103.3;;;;
2021/03/29 05:15:34;;;;;;;44.2;38.1;;;;;;;1.79;88.08105;100110.3;;;;
2021/03/29 05:25:32;;;;;;;51.9;37.2;;;;;;;2.29;92.19531;100097.9;;;;
2021/03/29 05:35:30;;;;;;;44.6;35.3;;;;;;;2.77;89.26465;100093.6;;;;
2021/03/29 05:45:27;;;;;;;45.2;35.3;;;;;;;3.32;88.61523;100096.3;;;;
2021/03/29 05:55:31;;;;;;;52.8;45.3;;;;;;;4.05;86.92773;100102.3;;;;
2021/03/29 06:05:23;;;;;;;42.3;36.1;;;;;;;4.46;84.07031;100115.6;;;;
2021/03/29 06:15:21;;;;;;;58.3;41.2;;;;;;;4.63;83.09082;100125.6;;;;
2021/03/29 06:25:20;;;;;;;61.3;40.8;;;;;;;4.49;80.63379;100115.1;;;;
2021/03/29 06:35:17;;;;;;;65.8;41.8;;;;;;;4.52;81.60449;100097.8;;;;
2021/03/29 06:45:15;;;;;;;56.4;38.3;;;;;;;5.06;80.68359;100110;;;;
2021/03/29 06:55:13;;;;;;;42.9;33.7;;;;;;;5.38;79.66406;100105.1;;;;
2021/03/29 07:05:11;;;;;;;61.5;48.6;;;;;;;5.99;79.19727;100107.9;;;;
2021/03/29 07:15:10;;;;;;;40.7;27;;;;;;;6.93;78.85449;100084.8;;;;
2021/03/29 07:25:08;;;;;;;12.7;6.6;;;;;;;7.78;69.35938;100107.5;;;;
2021/03/29 07:35:06;;;;;;;7.5;5.7;;;;;;;8.08;64.17578;100118.6;;;;
2021/03/29 07:45:04;;;;;;;12.9;7.6;;;;;;;8.32;62.87012;100121.8;;;;
2021/03/29 07:55:03;;;;;;;7.7;5.4;;;;;;;8.72;64.10059;100129.4;;;;
2021/03/29 08:05:02;;;;;;;8.7;5.7;;;;;;;9.25;59.79395;100123;;;;
2021/03/29 08:15:00;;;;;;;11.8;7.5;;;;;;;9.57;59.11523;100118.3;;;;
2021/03/29 08:24:58;;;;;;;10;6.6;;;;;;;10.05;58.76172;100109.1;;;;
2021/03/29 08:34:57;;;;;;;13.7;9.4;;;;;;;10.76;57.79004;100106.4;;;;
2021/03/29 08:44:56;;;;;;;28.4;22.8;;;;;;;10.91;56.53809;100122.6;;;;
2021/03/29 08:54:55;;;;;;;13.6;6.4;;;;;;;10.85;57.62012;100111;;;;
2021/03/29 09:04:53;;;;;;;8.5;6.8;;;;;;;10.88;57.83984;100112.3;;;;
2021/03/29 09:14:52;;;;;;;16.2;7.1;;;;;;;11.31;56.2832;100110.9;;;;
2021/03/29 09:24:51;;;;;;;7.3;5;;;;;;;11.34;55.11523;100110.4;;;;
2021/03/29 09:34:50;;;;;;;10.4;4.5;;;;;;;11.89;56.40332;100123.7;;;;
2021/03/29 09:44:49;;;;;;;15.2;4.6;;;;;;;12.32;52.61621;100124.7;;;;
2021/03/29 09:54:49;;;;;;;6.3;4.7;;;;;;;12.93;49.89941;100106.1;;;;
2021/03/29 10:04:47;;;;;;;8.2;5.1;;;;;;;13.42;49.2334;100096.9;;;;
2021/03/29 10:14:46;;;;;;;7.8;5;;;;;;;14.13;47.96094;100089.5;;;;
2021/03/29 10:25:00;;;;;;;6.4;4.1;;;;;;;14.2;43.52441;100074.7;;;;
2021/03/29 10:34:44;;;;;;;7.3;5;;;;;;;14.59;43.16016;100083.3;;;;
2021/03/29 10:44:43;;;;;;;6.3;4.3;;;;;;;14.69;42.08887;100066.9;;;;
2021/03/29 10:54:43;;;;;;;6.7;4.6;;;;;;;14.47;42.28613;100064.8;;;;
2021/03/29 11:04:42;;;;;;;9.2;5;;;;;;;14.82;42.94043;100054.5;;;;
2021/03/29 11:14:42;;;;;;;10.8;5.7;;;;;;;14.74;42.0127;100064.1;;;;
2021/03/29 11:24:42;;;;;;;11.6;4.6;;;;;;;15.43;41.56055;100064.9;;;;
2021/03/29 11:34:42;;;;;;;10.6;5.3;;;;;;;15.03;42.08691;100053.8;;;;
2021/03/29 11:44:42;;;;;;;8.3;5.2;;;;;;;15.29;42.09863;100053.3;;;;
2021/03/29 11:54:42;;;;;;;7.4;4.2;;;;;;;15.43;42.28613;100051.4;;;;
2021/03/29 12:04:42;;;;;;;7.7;3.6;;;;;;;15.23;42.45117;100044.4;;;;
2021/03/29 12:14:37;;;;;;;18.4;5.3;;;;;;;15.13;42.63672;100052;;;;
2021/03/29 12:24:37;;;;;;;9.2;5;;;;;;;14.92;43.88281;100040.7;;;;
2021/03/29 12:34:36;;;;;;;19.3;4.2;;;;;;;15.06;44.17383;100028.7;;;;
2021/03/29 12:44:36;;;;;;;8;4.5;;;;;;;14.83;43.3916;100027;;;;
2021/03/29 12:54:36;;;;;;;11.3;4.2;;;;;;;14.95;44.33496;100034.7;;;;
2021/03/29 13:04:37;;;;;;;9.5;4.7;;;;;;;14.87;44.52246;100033.5;;;;
2021/03/29 13:14:33;;;;;;;7.8;4.2;;;;;;;14.81;45.05664;100028.4;;;;
2021/03/29 13:24:33;;;;;;;9.6;5.1;;;;;;;14.78;44.43262;100024.4;;;;
2021/03/29 13:34:32;;;;;;;8.3;4;;;;;;;14.49;44.65723;100019.2;;;;
2021/03/29 13:44:31;;;;;;;18.5;5.8;;;;;;;14.25;45.01074;100023.1;;;;
2021/03/29 13:54:31;;;;;;;9;4;;;;;;;14.14;47.08984;100030.6;;;;
2021/03/29 14:04:30;;;;;;;7.6;4.5;;;;;;;13.86;48.18262;100028.9;;;;
2021/03/29 14:14:29;;;;;;;9.3;5;;;;;;;13.64;49.35059;100036.8;;;;
2021/03/29 14:24:28;;;;;;;12.9;6.9;;;;;;;13.2;52.50391;100034.4;;;;
2021/03/29 14:34:27;;;;;;;10.1;4.7;;;;;;;13.16;52.28125;100033.3;;;;
2021/03/29 14:44:31;;;;;;;7.7;5;;;;;;;12.93;55.21289;100049.3;;;;
2021/03/29 14:54:25;;;;;;;9.6;5.6;;;;;;;12.27;59.08203;100040.2;;;;
2021/03/29 15:04:27;;;;;;;12.4;7.6;;;;;;;12.02;63.31445;100057.4;;;;
2021/03/29 15:14:23;;;;;;;15.7;7.9;;;;;;;11.77;68.65723;100060.2;;;;
2021/03/29 15:24:22;;;;;;;18.7;7.6;;;;;;;11.22;70.66699;100053.2;;;;
2021/03/29 15:34:21;;;;;;;13.5;8.8;;;;;;;11.06;75.74219;100045.1;;;;
2021/03/29 15:44:20;;;;;;;18.6;11.2;;;;;;;11.01;76.77441;100039.8;;;;
2021/03/29 15:54:18;;;;;;;15.4;12.4;;;;;;;10.99;77.39063;100038.4;;;;
2021/03/29 16:04:17;;;;;;;15.3;11.3;;;;;;;10.79;81.66309;100031.2;;;;
2021/03/29 16:14:16;;;;;;;24.4;13.1;;;;;;;10.6;82.37207;100030.1;;;;
2021/03/29 16:24:18;;;;;;;21.1;11.7;;;;;;;10.12;87.22852;100018;;;;
2021/03/29 16:34:13;;;;;;;20.9;16.7;;;;;;;9.98;89.14258;99995.39;;;;
2021/03/29 16:44:12;;;;;;;26.6;19.8;;;;;;;9.71;93.33887;100006.4;;;;
2021/03/29 16:54:11;;;;;;;18.7;13.9;;;;;;;9.47;95.42578;99995.34;;;;
2021/03/29 17:04:09;;;;;;;15.5;11.3;;;;;;;9.36;100;99992.88;;;;
2021/03/29 17:14:08;;;;;;;19.4;12.4;;;;;;;9.19;100;99987.72;;;;
2021/03/29 17:24:07;;;;;;;25.5;13;;;;;;;9.12;100;99989.84;;;;
2021/03/29 17:34:05;;;;;;;17.9;14.5;;;;;;;9.19;100;100000.4;;;;
2021/03/29 17:44:04;;;;;;;17.9;12.7;;;;;;;9.25;100;100010.9;;;;
2021/03/29 17:54:02;;;;;;;12.6;11.3;;;;;;;9.19;100;100013.8;;;;
2021/03/29 18:04:01;;;;;;;14.6;9.9;;;;;;;9.27;100;100024;;;;
2021/03/29 18:13:59;;;;;;;13;10.4;;;;;;;9.21;100;100017;;;;
2021/03/29 18:23:58;;;;;;;14.7;10.6;;;;;;;9.28;100;100029.2;;;;
2021/03/29 18:33:56;;;;;;;22.2;14.9;;;;;;;9.28;100;100028.3;;;;
2021/03/29 18:43:55;;;;;;;16.3;12.5;;;;;;;9.25;100;100029.7;;;;
2021/03/29 18:53:54;;;;;;;15;10.4;;;;;;;9.23;100;100039.9;;;;
2021/03/29 19:03:51;;;;;;;21;12.2;;;;;;;9.16;100;100042;;;;
2021/03/29 19:13:50;;;;;;;17.3;13.6;;;;;;;9.04;100;100049.5;;;;
2021/03/29 19:23:49;;;;;;;27.7;18.2;;;;;;;8.9;100;100051;;;;
2021/03/29 19:33:47;;;;;;;26.1;19.3;;;;;;;8.93;100;100051.3;;;;
2021/03/29 19:43:46;;;;;;;22.5;15.2;;;;;;;8.84;100;100055.6;;;;
2021/03/29 19:53:44;;;;;;;16.8;13.3;;;;;;;8.69;100;100047.4;;;;
2021/03/29 20:03:45;;;;;;;19.1;12.2;;;;;;;8.65;100;100059.8;;;;
2021/03/29 20:13:43;;;;;;;14.3;11.4;;;;;;;8.65;100;100051.7;;;;
2021/03/29 20:23:39;;;;;;;12.8;9.2;;;;;;;8.7;100;100042.9;;;;
2021/03/29 20:33:40;;;;;;;12.9;8.8;;;;;;;8.7;100;100030.2;;;;
2021/03/29 20:43:36;;;;;;;12.8;9.1;;;;;;;8.65;100;100030.2;;;;
2021/03/29 20:53:35;;;;;;;14.8;8.8;;;;;;;8.68;100;100031.6;;;;
2021/03/29 21:03:33;;;;;;;17;10.1;;;;;;;8.6;100;100040.9;;;;
2021/03/29 21:13:32;;;;;;;17.1;10.6;;;;;;;8.62;100;100046;;;;
2021/03/29 21:23:30;;;;;;;17.5;11.5;;;;;;;8.63;100;100039.6;;;;
2021/03/29 21:33:28;;;;;;;13.2;9.7;;;;;;;8.68;100;100059.2;;;;
2021/03/29 21:43:27;;;;;;;13;9.2;;;;;;;8.66;100;100058.7;;;;
2021/03/29 21:53:25;;;;;;;14.7;10.3;;;;;;;8.71;100;100052.5;;;;
2021/03/29 22:03:24;;;;;;;20.4;11.7;;;;;;;8.65;100;100056.2;;;;
2021/03/29 22:13:22;;;;;;;23.6;10.7;;;;;;;8.63;100;100059.2;;;;
2021/03/29 22:23:23;;;;;;;14.9;11;;;;;;;8.7;100;100050.9;;;;
2021/03/29 22:33:25;;;;;;;17;15.2;;;;;;;8.72;100;100063;;;;
2021/03/29 22:43:18;;;;;;;17;11.8;;;;;;;8.77;100;100068.4;;;;
2021/03/29 22:53:17;;;;;;;21.6;14.1;;;;;;;8.83;100;100066.6;;;;
2021/03/29 23:03:15;;;;;;;34.1;19.6;;;;;;;8.72;100;100073.8;;;;
2021/03/29 23:13:13;;;;;;;33;20.7;;;;;;;8.75;100;100078.6;;;;
2021/03/29 23:23:12;;;;;;;28.8;21;;;;;;;8.69;100;100079.7;;;;
2021/03/29 23:33:10;;;;;;;24.5;19.5;;;;;;;8.73;100;100071.9;;;;
2021/03/29 23:43:09;;;;;;;26.7;21;;;;;;;8.66;100;100065.9;;;;
2021/03/29 23:53:07;;;;;;;26.4;22.6;;;;;;;8.63;100;100050.3;;;;
